Time;durP1;ratioP1;P1;durP2;ratioP2;P2;SDS_P1;SDS_P2;PMS_P1;PMS_P2;Temp;Humidity;BMP_temperature;BMP_pressure;BME280_temperature;BME280_humidity;BME280_pressure;Samples;Min_cycle;Max_cycle;Signal;HPM_P1;HPM_P2
2023/09/03 00:01:56;;;;;;;1.15;1.05;;;21.20;93.60;;;;;;5026560;28;20185;-69
2023/09/03 00:04:21;;;;;;;1.40;1.30;;;21.30;94.00;;;;;;5034354;28;20195;-69
2023/09/03 00:06:47;;;;;;;1.40;1.30;;;21.30;93.70;;;;;;5044099;28;20219;-71
2023/09/03 00:09:13;;;;;;;1.30;1.20;;;21.30;93.70;;;;;;5034223;28;20185;-70
2023/09/03 00:11:38;;;;;;;1.60;1.50;;;21.20;93.60;;;;;;5050762;28;20692;-69
2023/09/03 00:14:04;;;;;;;1.27;1.17;;;21.30;93.70;;;;;;5035872;28;20208;-69
2023/09/03 00:16:30;;;;;;;1.40;1.30;;;21.30;93.70;;;;;;5046857;28;20210;-69
2023/09/03 00:18:56;;;;;;;1.30;1.20;;;21.30;93.60;;;;;;5024382;28;20186;-69
2023/09/03 00:21:22;;;;;;;1.35;1.25;;;21.20;93.60;;;;;;5028505;28;20201;-69
2023/09/03 00:23:50;;;;;;;1.13;1.10;;;21.30;94.00;;;;;;5046321;28;20195;-69
2023/09/03 00:26:21;;;;;;;1.30;1.20;;;21.30;93.60;;;;;;5048300;28;20245;-69
2023/09/03 00:28:52;;;;;;;1.40;1.30;;;21.30;93.60;;;;;;5042788;28;20188;-69
2023/09/03 00:31:20;;;;;;;1.25;1.10;;;21.30;93.60;;;;;;5050393;28;20190;-70
2023/09/03 00:33:46;;;;;;;1.40;1.30;;;21.20;93.50;;;;;;5038198;28;20222;-70
2023/09/03 00:36:14;;;;;;;1.67;1.38;;;21.30;93.60;;;;;;5046147;28;20178;-70
2023/09/03 00:38:40;;;;;;;1.30;1.20;;;21.30;93.60;;;;;;5055754;28;20186;-70
2023/09/03 00:41:05;;;;;;;1.88;1.38;;;21.20;93.50;;;;;;5025642;28;20240;-71
2023/09/03 00:43:33;;;;;;;1.30;1.20;;;21.20;93.50;;;;;;5026460;28;20184;-69
2023/09/03 00:46:03;;;;;;;1.00;1.00;;;21.20;93.50;;;;;;5026069;28;20186;-69
2023/09/03 00:48:29;;;;;;;1.35;1.30;;;21.20;93.50;;;;;;5051330;28;20206;-69
2023/09/03 00:51:00;;;;;;;1.42;1.33;;;21.30;93.50;;;;;;5046418;28;20174;-70
2023/09/03 00:53:29;;;;;;;1.52;1.17;;;21.20;93.50;;;;;;5054579;28;20229;-70
2023/09/03 00:55:55;;;;;;;1.17;1.10;;;21.20;93.50;;;;;;5047212;28;20186;-69
2023/09/03 00:58:21;;;;;;;1.40;1.30;;;21.20;93.60;;;;;;5053591;28;20199;-71
2023/09/03 01:00:47;;;;;;;1.45;1.35;;;21.20;93.60;;;;;;5045472;28;20194;-69
2023/09/03 01:03:14;;;;;;;0.98;0.98;;;21.20;93.60;;;;;;5055530;28;20179;-69
2023/09/03 01:05:39;;;;;;;1.15;1.05;;;21.20;93.50;;;;;;5045757;28;20194;-69
2023/09/03 01:08:06;;;;;;;1.30;1.20;;;21.20;93.50;;;;;;5054452;28;20272;-70
2023/09/03 01:10:39;;;;;;;1.50;1.40;;;21.20;93.50;;;;;;5045604;28;20198;-69
2023/09/03 01:13:32;;;;;;;1.38;1.27;;;21.20;93.50;;;;;;5038231;28;20210;-70
2023/09/03 01:16:05;;;;;;;2.03;1.35;;;21.20;93.50;;;;;;5028945;28;20174;-67
2023/09/03 01:18:32;;;;;;;1.05;1.00;;;21.20;93.50;;;;;;5045969;28;20182;-70
2023/09/03 01:21:44;;;;;;;1.40;1.30;;;21.20;93.50;;;;;;5029216;28;20226;-69
2023/09/03 01:24:44;;;;;;;0.90;0.90;;;21.20;93.50;;;;;;5035093;28;20196;-69
2023/09/03 01:27:25;;;;;;;1.20;1.15;;;21.20;93.50;;;;;;5046382;28;20309;-69
2023/09/03 01:29:53;;;;;;;1.63;1.30;;;21.20;93.50;;;;;;5036968;28;20178;-70
2023/09/03 01:32:21;;;;;;;1.35;1.25;;;21.20;93.50;;;;;;5047862;28;20187;-69
2023/09/03 01:34:49;;;;;;;1.40;1.30;;;21.20;93.50;;;;;;5051204;28;20190;-70
2023/09/03 01:37:15;;;;;;;1.98;1.30;;;21.20;93.50;;;;;;5055287;28;20202;-70
2023/09/03 01:39:41;;;;;;;2.03;1.35;;;21.20;93.50;;;;;;5045840;28;20189;-69
2023/09/03 01:42:07;;;;;;;1.13;1.02;;;21.20;93.40;;;;;;5038198;28;20175;-70
2023/09/03 01:44:32;;;;;;;1.27;1.20;;;21.20;93.40;;;;;;5045105;28;20702;-69
2023/09/03 01:47:23;;;;;;;1.50;1.40;;;21.20;93.40;;;;;;5045217;28;20203;-69
2023/09/03 01:50:09;;;;;;;1.30;1.17;;;21.20;93.50;;;;;;5018505;28;20184;-69
2023/09/03 01:53:12;;;;;;;1.50;1.40;;;21.20;93.50;;;;;;5053441;28;20211;-70
2023/09/03 01:55:47;;;;;;;1.63;1.10;;;21.20;93.40;;;;;;5053339;28;20186;-69
2023/09/03 01:58:14;;;;;;;1.25;1.13;;;21.20;93.40;;;;;;5038745;28;20232;-69
2023/09/03 02:00:41;;;;;;;1.35;1.25;;;21.20;93.40;;;;;;5036508;28;20674;-69
2023/09/03 02:03:10;;;;;;;1.30;1.10;;;21.20;93.40;;;;;;5028934;28;20187;-70
2023/09/03 02:05:36;;;;;;;1.25;1.10;;;21.20;93.30;;;;;;5045371;28;20213;-70
2023/09/03 02:08:01;;;;;;;1.20;1.13;;;21.20;93.30;;;;;;5036018;28;20902;-69
2023/09/03 02:10:27;;;;;;;1.33;1.23;;;21.20;93.40;;;;;;5054423;28;20195;-69
2023/09/03 02:12:53;;;;;;;1.40;1.30;;;21.20;93.40;;;;;;5044645;28;20233;-70
2023/09/03 02:15:19;;;;;;;1.52;1.20;;;21.20;93.40;;;;;;5047721;28;20403;-71
2023/09/03 02:17:45;;;;;;;1.30;1.20;;;21.10;93.30;;;;;;5025002;28;20199;-69
2023/09/03 02:20:11;;;;;;;1.50;1.40;;;21.20;93.40;;;;;;5029285;28;20184;-69
2023/09/03 02:22:37;;;;;;;2.47;1.40;;;21.20;93.40;;;;;;5036526;28;20273;-69
2023/09/03 02:25:03;;;;;;;1.17;1.08;;;21.20;93.40;;;;;;5041033;28;20183;-69
2023/09/03 02:27:29;;;;;;;1.08;0.98;;;21.20;93.40;;;;;;5024937;28;20702;-69
2023/09/03 02:29:55;;;;;;;1.48;1.27;;;21.20;93.40;;;;;;5049663;28;20308;-69
2023/09/03 02:32:21;;;;;;;1.48;1.38;;;21.20;93.40;;;;;;5030021;28;20193;-69
2023/09/03 02:34:46;;;;;;;1.50;1.40;;;21.20;93.40;;;;;;5052175;28;20178;-69
2023/09/03 02:37:14;;;;;;;1.20;1.10;;;21.20;93.40;;;;;;5022855;28;20213;-69
2023/09/03 02:39:41;;;;;;;1.40;1.30;;;21.20;93.30;;;;;;5041103;28;20202;-69
2023/09/03 02:42:06;;;;;;;1.27;1.17;;;21.20;93.40;;;;;;5019626;28;20244;-70
2023/09/03 02:44:32;;;;;;;1.35;1.25;;;21.20;93.40;;;;;;5028380;28;20187;-69
2023/09/03 02:46:58;;;;;;;1.40;1.30;;;21.20;93.30;;;;;;5044491;28;20207;-69
2023/09/03 02:49:24;;;;;;;1.45;1.35;;;21.20;93.30;;;;;;5052768;28;20190;-69
2023/09/03 02:51:50;;;;;;;1.10;1.00;;;21.10;93.30;;;;;;5036220;28;20197;-70
2023/09/03 02:54:16;;;;;;;1.27;1.17;;;21.20;93.30;;;;;;5028267;28;20202;-69
2023/09/03 02:56:42;;;;;;;1.50;1.40;;;21.10;93.30;;;;;;5036147;28;20199;-69
2023/09/03 02:59:07;;;;;;;1.23;1.13;;;21.20;93.30;;;;;;5053108;28;20238;-69
2023/09/03 03:01:33;;;;;;;1.40;1.30;;;21.20;93.30;;;;;;5028353;28;20179;-68
2023/09/03 03:03:59;;;;;;;1.10;1.10;;;21.20;93.30;;;;;;5052396;28;20317;-69
2023/09/03 03:06:25;;;;;;;1.30;1.20;;;21.10;93.20;;;;;;5053362;28;20214;-69
2023/09/03 03:08:51;;;;;;;1.00;1.00;;;21.10;93.30;;;;;;5037401;28;20191;-68
2023/09/03 03:11:18;;;;;;;1.23;1.13;;;21.10;93.20;;;;;;5052370;28;20186;-69
2023/09/03 03:13:52;;;;;;;1.40;1.10;;;21.10;93.20;;;;;;5027853;28;20221;-69
2023/09/03 03:16:20;;;;;;;1.48;1.38;;;21.10;93.30;;;;;;5051785;28;20254;-69
2023/09/03 03:18:51;;;;;;;1.35;1.25;;;21.10;93.30;;;;;;5027104;28;20198;-70
2023/09/03 03:21:22;;;;;;;1.40;1.30;;;21.10;93.20;;;;;;5040084;28;20199;-69
2023/09/03 03:23:52;;;;;;;1.45;1.35;;;21.10;93.20;;;;;;5032172;28;20190;-69
2023/09/03 03:26:26;;;;;;;1.40;1.30;;;21.10;93.20;;;;;;5051589;28;20214;-69
2023/09/03 03:28:52;;;;;;;1.15;1.05;;;21.10;93.20;;;;;;5043196;28;20183;-70
2023/09/03 03:31:19;;;;;;;1.27;1.20;;;21.10;93.20;;;;;;5027126;28;20232;-69
2023/09/03 03:33:48;;;;;;;1.45;1.35;;;21.10;93.50;;;;;;5051684;28;20213;-69
2023/09/03 03:36:20;;;;;;;1.50;1.40;;;21.10;93.20;;;;;;5035249;28;20174;-69
2023/09/03 03:38:47;;;;;;;1.23;1.13;;;21.10;93.10;;;;;;5027071;28;20179;-70
2023/09/03 03:41:17;;;;;;;1.20;1.10;;;21.10;93.10;;;;;;5031920;28;20560;-69
2023/09/03 03:43:49;;;;;;;2.17;1.27;;;21.10;93.10;;;;;;5023534;28;20717;-69
2023/09/03 03:46:19;;;;;;;1.30;1.20;;;21.10;93.10;;;;;;5026905;28;20194;-70
2023/09/03 03:48:48;;;;;;;1.10;1.10;;;21.10;93.10;;;;;;5050761;28;20186;-70
2023/09/03 03:51:14;;;;;;;1.55;1.45;;;21.10;93.10;;;;;;5043116;28;20185;-69
2023/09/03 03:53:41;;;;;;;1.40;1.30;;;21.10;93.20;;;;;;5028083;28;20203;-70
2023/09/03 03:56:12;;;;;;;1.60;1.50;;;21.10;93.10;;;;;;5031228;28;20316;-69
2023/09/03 03:58:43;;;;;;;1.30;1.20;;;21.10;93.10;;;;;;5039646;28;20186;-69
2023/09/03 04:01:18;;;;;;;1.20;1.20;;;21.10;93.10;;;;;;5041900;28;20183;-69
2023/09/03 04:03:48;;;;;;;1.50;1.40;;;21.10;93.10;;;;;;5043032;28;20334;-70
2023/09/03 04:06:14;;;;;;;1.40;1.30;;;21.10;93.10;;;;;;5031572;28;20191;-69
2023/09/03 04:08:43;;;;;;;1.20;1.10;;;21.10;93.20;;;;;;5023028;28;20192;-69
2023/09/03 04:11:14;;;;;;;1.40;1.30;;;21.10;93.10;;;;;;5049767;28;20217;-69
2023/09/03 04:13:40;;;;;;;1.30;1.20;;;21.10;93.10;;;;;;5026094;28;20226;-71
2023/09/03 04:16:19;;;;;;;1.20;1.10;;;21.10;93.10;;;;;;5015664;28;20183;-69
2023/09/03 04:18:49;;;;;;;1.13;1.02;;;21.10;93.10;;;;;;5022332;28;20179;-69
2023/09/03 04:21:15;;;;;;;1.38;1.27;;;21.10;93.10;;;;;;5051188;28;20198;-69
2023/09/03 04:23:41;;;;;;;1.52;1.25;;;21.10;93.10;;;;;;5040394;28;20197;-69
2023/09/03 04:26:09;;;;;;;1.40;1.30;;;21.10;93.10;;;;;;5024301;28;20182;-68
2023/09/03 04:28:42;;;;;;;1.45;1.20;;;21.10;93.10;;;;;;5042907;28;20194;-69
2023/09/03 04:31:08;;;;;;;1.40;1.30;;;21.10;93.10;;;;;;5026469;28;20182;-69
2023/09/03 04:33:36;;;;;;;1.17;1.08;;;21.10;93.10;;;;;;5042719;28;20645;-69
2023/09/03 04:36:04;;;;;;;1.40;1.30;;;21.10;93.20;;;;;;5042653;28;20179;-69
2023/09/03 04:38:32;;;;;;;1.30;1.20;;;21.10;93.10;;;;;;5048805;28;20178;-69
2023/09/03 04:41:05;;;;;;;1.23;1.10;;;21.10;93.10;;;;;;5051156;28;20236;-69
2023/09/03 04:43:36;;;;;;;1.30;1.20;;;21.10;93.10;;;;;;5042411;28;20197;-70
2023/09/03 04:46:02;;;;;;;1.13;1.02;;;21.10;93.10;;;;;;5033245;28;20187;-70
2023/09/03 04:48:28;;;;;;;1.27;1.17;;;21.10;93.10;;;;;;5060142;28;20183;-69
2023/09/03 04:50:54;;;;;;;1.35;1.25;;;21.10;93.10;;;;;;5031895;28;20194;-69
2023/09/03 04:53:21;;;;;;;1.17;1.10;;;21.10;93.10;;;;;;5050834;28;20229;-71
2023/09/03 04:55:46;;;;;;;1.40;1.30;;;21.10;93.10;;;;;;5034179;28;20179;-69
2023/09/03 04:58:12;;;;;;;1.27;1.17;;;21.10;93.10;;;;;;5034396;28;20209;-69
2023/09/03 05:00:39;;;;;;;1.05;0.95;;;21.10;93.20;;;;;;5043671;28;20183;-69
2023/09/03 05:03:08;;;;;;;2.22;1.42;;;21.10;93.10;;;;;;5054425;28;20183;-69
2023/09/03 05:05:43;;;;;;;1.58;1.48;;;21.10;93.10;;;;;;5046234;28;20186;-70
2023/09/03 05:08:10;;;;;;;1.30;1.20;;;21.10;93.10;;;;;;5054175;28;20228;-70
2023/09/03 05:10:39;;;;;;;1.45;1.35;;;21.10;93.20;;;;;;5054258;28;20187;-69
2023/09/03 05:13:06;;;;;;;1.17;1.08;;;21.10;93.10;;;;;;5054036;28;20203;-70
2023/09/03 05:15:32;;;;;;;1.20;1.10;;;21.00;93.10;;;;;;5045326;28;20186;-71
2023/09/03 05:18:00;;;;;;;1.20;1.10;;;21.10;93.10;;;;;;5037696;28;20195;-70
2023/09/03 05:20:27;;;;;;;1.50;1.40;;;21.10;93.20;;;;;;5053376;28;20186;-69
2023/09/03 05:22:52;;;;;;;1.35;1.25;;;21.10;93.10;;;;;;5054088;28;20185;-69
2023/09/03 05:25:18;;;;;;;2.03;1.15;;;21.10;93.10;;;;;;5037071;28;20187;-69
2023/09/03 05:27:44;;;;;;;1.40;1.30;;;21.10;93.10;;;;;;5045525;28;20210;-69
2023/09/03 05:30:10;;;;;;;1.30;1.20;;;21.00;93.10;;;;;;5045946;28;20236;-69
2023/09/03 05:32:36;;;;;;;1.35;1.13;;;21.10;93.10;;;;;;5028953;28;20297;-69
2023/09/03 05:35:03;;;;;;;1.10;1.10;;;21.00;93.10;;;;;;5053394;28;20312;-70
2023/09/03 05:37:28;;;;;;;1.20;1.10;;;21.10;93.10;;;;;;5053641;28;20198;-69
2023/09/03 05:39:55;;;;;;;1.35;1.25;;;21.00;93.10;;;;;;5026332;28;20176;-69
2023/09/03 05:42:21;;;;;;;2.55;1.38;;;21.00;93.10;;;;;;5052121;28;20186;-69
2023/09/03 05:44:48;;;;;;;1.35;1.25;;;21.00;93.10;;;;;;5045089;28;20175;-69
2023/09/03 05:47:18;;;;;;;1.75;1.17;;;21.10;93.10;;;;;;5053343;28;20222;-69
2023/09/03 05:49:45;;;;;;;1.48;1.38;;;21.00;93.10;;;;;;5053792;28;20178;-69
2023/09/03 05:52:11;;;;;;;1.40;1.30;;;21.00;93.10;;;;;;5028768;28;20187;-70
2023/09/03 05:54:38;;;;;;;1.00;1.00;;;21.10;93.10;;;;;;5053314;28;20220;-72
2023/09/03 05:57:04;;;;;;;1.25;1.15;;;21.10;93.10;;;;;;5028403;28;20206;-69
2023/09/03 05:59:30;;;;;;;1.30;1.20;;;21.00;93.10;;;;;;5045359;28;20182;-69
2023/09/03 06:01:57;;;;;;;1.40;1.30;;;21.00;93.10;;;;;;5036861;28;20179;-69
2023/09/03 06:04:24;;;;;;;1.60;1.50;;;21.00;93.10;;;;;;5045021;28;20186;-69
2023/09/03 06:06:50;;;;;;;1.13;1.08;;;21.00;93.10;;;;;;5052852;28;20689;-69
2023/09/03 06:09:18;;;;;;;1.30;1.20;;;21.00;93.10;;;;;;5044727;28;20191;-69
2023/09/03 06:11:46;;;;;;;1.20;1.20;;;21.00;93.10;;;;;;5047426;28;20183;-69
2023/09/03 06:14:13;;;;;;;1.23;1.17;;;21.00;93.10;;;;;;5040760;28;20219;-69
2023/09/03 06:16:38;;;;;;;1.38;1.27;;;21.00;93.10;;;;;;5029324;28;20276;-69
2023/09/03 06:19:04;;;;;;;1.05;1.00;;;21.00;93.10;;;;;;5046143;28;20170;-70
2023/09/03 06:21:30;;;;;;;1.30;1.20;;;21.00;93.10;;;;;;5036435;28;20205;-68
2023/09/03 06:23:56;;;;;;;1.17;1.10;;;21.00;93.10;;;;;;5052971;28;20182;-69
2023/09/03 06:26:22;;;;;;;1.30;1.20;;;21.00;93.10;;;;;;5045490;28;20257;-69
2023/09/03 06:28:47;;;;;;;1.50;1.40;;;21.00;93.10;;;;;;5053758;28;20281;-69
2023/09/03 06:31:13;;;;;;;1.23;1.13;;;21.10;93.10;;;;;;5051621;28;20183;-71
2023/09/03 06:33:40;;;;;;;1.20;1.10;;;21.00;93.10;;;;;;5041143;28;20211;-69
2023/09/03 06:36:05;;;;;;;1.50;1.40;;;21.00;93.10;;;;;;5065201;28;20193;-70
2023/09/03 06:38:31;;;;;;;1.17;1.10;;;21.00;93.20;;;;;;5044567;28;20178;-69
2023/09/03 06:40:57;;;;;;;1.77;1.10;;;21.00;93.20;;;;;;5052034;28;20178;-69
2023/09/03 06:43:23;;;;;;;0.90;0.90;;;21.00;93.30;;;;;;5052485;28;20178;-69
2023/09/03 06:45:49;;;;;;;1.00;1.00;;;21.00;93.30;;;;;;5045219;28;20186;-69
2023/09/03 06:48:14;;;;;;;2.03;1.27;;;21.00;93.30;;;;;;5043680;28;20207;-69
2023/09/03 06:50:41;;;;;;;1.23;1.10;;;21.00;93.40;;;;;;5052484;28;20208;-69
2023/09/03 06:53:07;;;;;;;1.20;1.10;;;21.00;93.40;;;;;;5036995;28;20203;-69
2023/09/03 06:55:33;;;;;;;1.73;1.50;;;21.00;93.40;;;;;;5043854;28;20192;-69
2023/09/03 06:57:58;;;;;;;1.20;1.10;;;21.00;93.40;;;;;;5027158;28;20209;-69
2023/09/03 07:00:24;;;;;;;1.35;1.20;;;21.00;93.40;;;;;;5047982;28;20187;-70
2023/09/03 07:02:50;;;;;;;1.48;1.20;;;21.00;93.50;;;;;;5052401;28;20187;-70
2023/09/03 07:05:16;;;;;;;1.15;1.08;;;21.00;93.50;;;;;;5050994;28;20228;-70
2023/09/03 07:07:42;;;;;;;1.50;1.40;;;21.00;93.60;;;;;;5040382;28;20310;-70
2023/09/03 07:10:08;;;;;;;1.23;1.13;;;21.00;93.60;;;;;;5040596;28;20195;-69
2023/09/03 07:12:34;;;;;;;1.45;1.35;;;21.00;93.60;;;;;;5043632;28;20191;-71
2023/09/03 07:14:59;;;;;;;1.20;1.15;;;21.00;93.60;;;;;;5039004;28;20204;-69
2023/09/03 07:17:25;;;;;;;1.20;1.10;;;21.00;93.70;;;;;;5041451;28;20207;-68
2023/09/03 07:19:54;;;;;;;1.33;1.23;;;21.00;93.70;;;;;;5027522;28;20246;-68
2023/09/03 07:22:20;;;;;;;1.20;1.10;;;21.00;93.80;;;;;;5031070;28;20666;-68
2023/09/03 07:24:46;;;;;;;1.58;1.48;;;21.00;93.80;;;;;;5019553;28;20210;-67
2023/09/03 07:27:12;;;;;;;0.93;0.93;;;21.00;93.90;;;;;;5028626;28;20710;-70
2023/09/03 07:29:37;;;;;;;1.20;1.13;;;21.00;93.80;;;;;;5023661;28;20199;-67
2023/09/03 07:32:04;;;;;;;1.35;1.25;;;21.00;93.90;;;;;;5012032;28;20213;-68
2023/09/03 07:34:29;;;;;;;1.33;1.23;;;21.00;93.90;;;;;;5021095;28;20241;-68
2023/09/03 07:36:55;;;;;;;1.30;1.20;;;21.00;93.90;;;;;;5025786;28;20207;-67
2023/09/03 07:39:21;;;;;;;1.20;1.10;;;21.00;94.00;;;;;;5015065;28;20312;-68
2023/09/03 07:41:46;;;;;;;1.02;1.02;;;21.00;94.10;;;;;;5031785;28;20218;-68
2023/09/03 07:44:12;;;;;;;1.13;1.02;;;21.00;94.10;;;;;;5028362;28;20202;-67
2023/09/03 07:46:38;;;;;;;1.40;1.30;;;21.00;94.10;;;;;;5031313;28;20230;-68
2023/09/03 07:49:03;;;;;;;1.15;1.05;;;21.00;94.10;;;;;;5031649;28;20195;-68
2023/09/03 07:51:29;;;;;;;1.52;1.40;;;21.10;94.30;;;;;;5004624;28;20196;-68
2023/09/03 07:53:55;;;;;;;1.30;1.20;;;21.00;94.20;;;;;;5018592;28;20203;-67
2023/09/03 07:56:21;;;;;;;1.48;1.33;;;21.10;94.30;;;;;;5022878;28;20216;-68
2023/09/03 07:58:47;;;;;;;1.10;1.10;;;21.00;94.30;;;;;;5028294;28;20188;-67
2023/09/03 08:01:15;;;;;;;1.50;1.40;;;21.00;94.60;;;;;;5019783;28;20563;-67
2023/09/03 08:03:42;;;;;;;0.98;0.98;;;21.10;94.60;;;;;;5032816;28;20190;-67
2023/09/03 08:06:09;;;;;;;1.10;1.10;;;21.10;94.50;;;;;;5027798;28;20199;-68
2023/09/03 08:08:35;;;;;;;1.30;1.20;;;21.10;94.70;;;;;;5033849;28;20266;-67
2023/09/03 08:11:02;;;;;;;1.23;1.13;;;21.10;94.70;;;;;;5051399;28;20186;-68
2023/09/03 08:13:28;;;;;;;1.27;1.20;;;21.10;94.70;;;;;;5043043;28;20207;-67
2023/09/03 08:15:54;;;;;;;1.75;1.65;;;21.10;94.60;;;;;;5035578;28;20225;-68
2023/09/03 08:18:21;;;;;;;1.40;1.30;;;21.20;94.50;;;;;;5028386;28;20264;-67
2023/09/03 08:20:49;;;;;;;1.30;1.20;;;21.20;94.40;;;;;;5035694;28;20192;-68
2023/09/03 08:23:15;;;;;;;1.40;1.30;;;21.20;94.40;;;;;;5019370;28;20195;-68
2023/09/03 08:25:41;;;;;;;1.50;1.40;;;21.20;94.50;;;;;;5020887;28;20203;-69
2023/09/03 08:28:09;;;;;;;1.38;1.27;;;21.20;94.60;;;;;;5045558;28;20206;-68
2023/09/03 08:30:35;;;;;;;2.45;1.50;;;21.20;94.60;;;;;;5039206;28;20219;-68
2023/09/03 08:33:01;;;;;;;1.50;1.40;;;21.20;94.90;;;;;;5020488;28;20222;-68
2023/09/03 08:35:28;;;;;;;1.67;1.27;;;21.20;94.90;;;;;;5031043;28;20281;-68
2023/09/03 08:37:54;;;;;;;1.30;1.20;;;21.20;94.60;;;;;;5032291;28;20238;-67
2023/09/03 08:40:21;;;;;;;1.33;1.23;;;21.30;94.60;;;;;;5046090;28;20230;-67
2023/09/03 08:42:49;;;;;;;1.30;1.20;;;21.20;94.50;;;;;;5051294;28;20188;-67
2023/09/03 08:45:19;;;;;;;1.25;1.10;;;21.30;94.50;;;;;;5014878;28;20682;-67
2023/09/03 08:47:45;;;;;;;1.35;1.25;;;21.30;94.60;;;;;;4998895;28;20216;-67
2023/09/03 08:50:13;;;;;;;1.38;1.20;;;21.30;94.50;;;;;;5015620;28;20216;-67
2023/09/03 08:52:44;;;;;;;1.40;1.30;;;21.30;94.60;;;;;;5025982;28;20274;-68
2023/09/03 08:55:12;;;;;;;1.40;1.30;;;21.30;94.60;;;;;;5027272;28;20183;-68
2023/09/03 08:57:38;;;;;;;1.55;1.45;;;21.30;94.50;;;;;;5024192;28;20214;-68
2023/09/03 09:00:06;;;;;;;1.05;1.05;;;21.30;94.50;;;;;;5022502;28;20188;-69
2023/09/03 09:02:36;;;;;;;1.02;1.00;;;21.30;94.60;;;;;;5030969;28;20191;-67
2023/09/03 09:05:08;;;;;;;1.23;1.13;;;21.40;94.60;;;;;;5020664;28;20187;-69
2023/09/03 09:07:34;;;;;;;1.40;1.20;;;21.30;94.50;;;;;;5031295;28;20307;-67
2023/09/03 09:10:08;;;;;;;1.00;1.00;;;21.30;94.80;;;;;;5029161;28;20271;-68
2023/09/03 09:12:56;;;;;;;1.42;1.33;;;21.40;95.00;;;;;;5024760;28;20192;-67
2023/09/03 09:15:22;;;;;;;1.20;1.10;;;21.40;94.70;;;;;;5023534;28;20539;-67
2023/09/03 09:17:50;;;;;;;0.70;0.70;;;21.40;94.60;;;;;;5034507;28;20210;-68
2023/09/03 09:20:17;;;;;;;1.30;1.20;;;21.40;94.70;;;;;;5033946;28;20194;-67
2023/09/03 09:22:46;;;;;;;0.98;0.98;;;21.40;94.70;;;;;;5026168;28;20183;-68
2023/09/03 09:25:39;;;;;;;1.30;1.20;;;21.40;94.70;;;;;;5050058;28;20186;-68
2023/09/03 09:28:12;;;;;;;1.20;1.10;;;21.40;94.60;;;;;;5024787;28;20274;-68
2023/09/03 09:30:52;;;;;;;1.05;1.05;;;21.40;94.60;;;;;;5030040;28;20179;-68
2023/09/03 09:33:19;;;;;;;1.02;0.95;;;21.40;94.70;;;;;;5027610;28;20255;-67
2023/09/03 09:35:44;;;;;;;1.20;1.10;;;21.40;94.50;;;;;;5024350;28;20209;-69
2023/09/03 09:38:10;;;;;;;1.00;1.00;;;21.40;94.60;;;;;;5034815;28;20682;-67
2023/09/03 09:40:36;;;;;;;1.13;1.05;;;21.40;94.60;;;;;;5032948;28;20187;-67
2023/09/03 09:43:07;;;;;;;1.02;1.02;;;21.40;94.50;;;;;;5017112;28;20278;-67
2023/09/03 09:45:48;;;;;;;1.48;1.38;;;21.40;94.50;;;;;;5034512;28;20188;-67
2023/09/03 09:48:14;;;;;;;1.10;1.00;;;21.40;94.70;;;;;;5033352;28;20207;-68
2023/09/03 09:50:43;;;;;;;0.95;0.95;;;21.40;94.80;;;;;;5034233;28;20183;-68
2023/09/03 09:53:19;;;;;;;1.00;1.00;;;21.40;94.70;;;;;;5033374;28;20704;-68
2023/09/03 09:55:46;;;;;;;1.20;1.10;;;21.40;94.70;;;;;;5025020;28;20187;-67
2023/09/03 09:58:12;;;;;;;0.90;0.90;;;21.40;94.70;;;;;;5033522;28;20213;-67
2023/09/03 10:00:41;;;;;;;1.10;1.00;;;21.40;94.70;;;;;;5033334;28;20237;-68
2023/09/03 10:03:10;;;;;;;0.95;0.95;;;21.40;95.00;;;;;;5034501;28;20190;-68
2023/09/03 10:05:38;;;;;;;1.85;1.02;;;21.40;94.80;;;;;;5019139;28;20246;-69
2023/09/03 10:08:04;;;;;;;1.42;1.10;;;21.40;94.90;;;;;;5052767;28;20284;-68
2023/09/03 10:10:30;;;;;;;0.88;0.88;;;21.50;94.80;;;;;;5044240;28;20191;-69
2023/09/03 10:12:56;;;;;;;1.30;1.10;;;21.40;94.80;;;;;;5045332;28;20206;-67
2023/09/03 10:15:26;;;;;;;1.20;1.10;;;21.40;95.00;;;;;;5031239;28;20179;-67
2023/09/03 10:17:54;;;;;;;1.02;1.02;;;21.50;94.80;;;;;;5044385;28;20202;-67
2023/09/03 10:20:21;;;;;;;1.27;1.17;;;21.40;95.00;;;;;;5036010;28;20202;-67
2023/09/03 10:22:53;;;;;;;0.88;0.88;;;21.50;94.80;;;;;;5034665;28;20270;-69
2023/09/03 10:25:25;;;;;;;1.05;1.00;;;21.50;94.90;;;;;;5044523;28;20205;-70
2023/09/03 10:27:59;;;;;;;0.70;0.70;;;21.40;94.80;;;;;;5044485;28;20209;-68
2023/09/03 10:30:33;;;;;;;1.00;1.00;;;21.50;94.80;;;;;;5028261;28;20273;-68
2023/09/03 10:33:01;;;;;;;1.08;0.98;;;21.50;94.90;;;;;;5033644;28;20214;-67
2023/09/03 10:35:27;;;;;;;0.95;0.95;;;21.50;94.80;;;;;;5040679;28;20191;-67
2023/09/03 10:37:53;;;;;;;0.82;0.80;;;21.50;94.80;;;;;;5052110;28;20214;-68
2023/09/03 10:40:22;;;;;;;1.13;1.02;;;21.50;94.80;;;;;;5045527;28;20198;-68
2023/09/03 10:43:22;;;;;;;0.90;0.90;;;21.50;94.90;;;;;;5035951;28;20201;-67
2023/09/03 10:46:27;;;;;;;1.30;1.20;;;21.50;94.90;;;;;;5044094;28;20240;-67
2023/09/03 10:48:56;;;;;;;0.90;0.90;;;21.50;95.00;;;;;;5006179;28;20222;-68
2023/09/03 10:51:38;;;;;;;1.10;1.10;;;21.50;94.80;;;;;;5041485;28;20282;-69
2023/09/03 10:54:15;;;;;;;1.08;1.00;;;21.50;95.10;;;;;;5021128;28;20214;-67
2023/09/03 10:57:15;;;;;;;1.42;1.10;;;21.50;94.90;;;;;;5024953;28;20237;-67
2023/09/03 11:00:02;;;;;;;1.63;1.15;;;21.50;95.10;;;;;;5044887;28;20183;-67
2023/09/03 11:02:29;;;;;;;0.88;0.88;;;21.50;95.10;;;;;;5023453;28;20210;-68
2023/09/03 11:05:19;;;;;;;0.90;0.90;;;21.50;95.00;;;;;;5044521;28;20186;-68
2023/09/03 11:07:47;;;;;;;1.20;1.10;;;21.50;95.00;;;;;;5035316;28;20211;-67
2023/09/03 11:10:25;;;;;;;1.20;1.10;;;21.50;95.00;;;;;;5035592;28;20298;-72
2023/09/03 11:12:52;;;;;;;1.17;1.08;;;21.50;94.90;;;;;;5043472;28;20210;-68
2023/09/03 11:15:18;;;;;;;0.82;0.82;;;21.50;94.90;;;;;;5051576;28;20642;-68
2023/09/03 11:17:56;;;;;;;1.00;1.00;;;21.50;94.80;;;;;;5026580;28;20231;-67
2023/09/03 11:20:36;;;;;;;1.13;1.05;;;21.50;94.80;;;;;;5052693;28;20209;-70
2023/09/03 11:23:03;;;;;;;1.10;1.00;;;21.60;95.00;;;;;;5047752;28;20191;-69
2023/09/03 11:25:37;;;;;;;0.90;0.90;;;21.60;95.10;;;;;;5039713;28;20183;-67
2023/09/03 11:28:05;;;;;;;1.13;1.02;;;21.50;95.00;;;;;;5032332;28;20198;-67
2023/09/03 11:30:31;;;;;;;1.30;1.20;;;21.50;95.30;;;;;;5047845;28;20210;-68
2023/09/03 11:32:57;;;;;;;1.20;1.10;;;21.60;95.10;;;;;;5018529;28;20226;-68
2023/09/03 11:35:24;;;;;;;1.27;1.17;;;21.60;95.10;;;;;;5044819;28;20213;-68
2023/09/03 11:37:52;;;;;;;0.90;0.88;;;21.60;95.10;;;;;;5025191;28;20233;-67
2023/09/03 11:40:19;;;;;;;0.98;0.98;;;21.50;95.00;;;;;;5045768;28;20171;-67
2023/09/03 11:42:50;;;;;;;1.52;1.00;;;21.50;95.10;;;;;;5048383;28;20269;-67
2023/09/03 11:45:16;;;;;;;1.00;1.00;;;21.60;95.00;;;;;;5028586;28;20556;-67
2023/09/03 11:47:50;;;;;;;1.20;1.00;;;21.60;95.10;;;;;;5026596;28;20214;-67
2023/09/03 11:50:17;;;;;;;1.20;1.10;;;21.60;95.10;;;;;;5047102;28;20182;-67
2023/09/03 11:53:10;;;;;;;0.85;0.85;;;21.60;95.00;;;;;;5027411;28;20725;-67
2023/09/03 11:55:46;;;;;;;1.02;1.00;;;21.60;95.00;;;;;;5025408;28;20199;-67
2023/09/03 11:58:18;;;;;;;1.02;0.93;;;21.60;95.00;;;;;;5034122;28;20748;-67
2023/09/03 12:00:46;;;;;;;1.13;1.10;;;21.60;95.30;;;;;;5021677;28;20187;-69
2023/09/03 12:03:13;;;;;;;0.90;0.90;;;21.60;95.30;;;;;;5031708;28;20288;-67
2023/09/03 12:05:39;;;;;;;1.23;1.13;;;21.60;95.20;;;;;;5040695;28;20178;-68
2023/09/03 12:08:06;;;;;;;0.90;0.90;;;21.60;95.10;;;;;;5026469;28;20300;-67
2023/09/03 12:10:32;;;;;;;1.13;1.13;;;21.60;95.10;;;;;;5047177;28;20190;-68
2023/09/03 12:12:59;;;;;;;1.08;1.02;;;21.60;95.20;;;;;;5019063;28;20217;-67
2023/09/03 12:15:26;;;;;;;1.00;1.00;;;21.60;95.10;;;;;;5049920;28;20202;-69
2023/09/03 12:17:52;;;;;;;1.10;1.00;;;21.60;95.10;;;;;;5046783;28;20214;-68
2023/09/03 12:20:39;;;;;;;1.08;0.98;;;21.60;95.10;;;;;;5030248;28;20190;-68
2023/09/03 12:23:18;;;;;;;1.20;1.10;;;21.60;95.00;;;;;;5029849;28;20581;-67
2023/09/03 12:25:44;;;;;;;1.10;1.00;;;21.60;95.00;;;;;;5047679;28;20186;-68
2023/09/03 12:28:10;;;;;;;1.27;1.17;;;21.60;95.00;;;;;;5046833;28;20222;-67
2023/09/03 12:31:00;;;;;;;1.17;1.08;;;21.60;95.00;;;;;;5040713;28;20184;-68
2023/09/03 12:33:43;;;;;;;1.38;1.27;;;21.60;95.20;;;;;;5044110;28;20225;-68
2023/09/03 12:36:14;;;;;;;1.15;1.05;;;21.60;95.20;;;;;;5035332;28;20260;-67
2023/09/03 12:38:54;;;;;;;1.10;1.02;;;21.60;95.20;;;;;;5040383;28;20259;-67
2023/09/03 12:41:22;;;;;;;1.27;1.17;;;21.60;95.10;;;;;;5049956;28;20186;-67
2023/09/03 12:43:48;;;;;;;1.27;1.10;;;21.60;95.00;;;;;;5047389;28;20195;-67
2023/09/03 12:46:13;;;;;;;0.93;0.93;;;21.60;95.00;;;;;;5054702;28;20193;-67
2023/09/03 12:48:42;;;;;;;0.77;0.77;;;21.60;95.00;;;;;;5031570;28;20199;-68
2023/09/03 12:51:10;;;;;;;1.20;1.10;;;21.60;94.90;;;;;;5037467;28;20182;-68
2023/09/03 12:53:38;;;;;;;1.20;1.10;;;21.60;94.90;;;;;;5041828;28;20210;-68
2023/09/03 12:56:04;;;;;;;1.10;1.10;;;21.60;94.90;;;;;;5029225;28;20270;-68
2023/09/03 12:58:30;;;;;;;1.05;1.05;;;21.60;94.90;;;;;;5029542;28;20273;-67